sensor_id;sensor_type;location;lat;lon;timestamp;temperature;humidity
61916;DHT22;47868;51.326;6.550;2022-12-08T00:01:31;5.20;99.90
61916;DHT22;47868;51.326;6.550;2022-12-08T00:03:59;5.30;99.90
61916;DHT22;47868;51.326;6.550;2022-12-08T00:29:04;5.10;99.90
61916;DHT22;47868;51.326;6.550;2022-12-08T00:31:30;5.20;99.90
61916;DHT22;47868;51.326;6.550;2022-12-08T00:33:58;5.10;99.90
61916;DHT22;47868;51.326;6.550;2022-12-08T00:36:25;5.10;99.90
61916;DHT22;47868;51.326;6.550;2022-12-08T00:38:50;5.10;99.90
61916;DHT22;47868;51.326;6.550;2022-12-08T00:41:18;5.20;99.90
61916;DHT22;47868;51.326;6.550;2022-12-08T00:53:53;4.90;99.90
61916;DHT22;47868;51.326;6.550;2022-12-08T00:56:19;5.10;99.90
61916;DHT22;47868;51.326;6.550;2022-12-08T00:58:44;5.00;99.90
61916;DHT22;47868;51.326;6.550;2022-12-08T01:01:11;5.00;99.90
61916;DHT22;47868;51.326;6.550;2022-12-08T01:03:37;5.10;99.90
61916;DHT22;47868;51.326;6.550;2022-12-08T01:08:30;5.10;99.90
61916;DHT22;47868;51.326;6.550;2022-12-08T01:10:56;5.10;99.90
61916;DHT22;47868;51.326;6.550;2022-12-08T01:13:21;5.30;99.90
61916;DHT22;47868;51.326;6.550;2022-12-08T01:15:48;5.10;99.90
61916;DHT22;47868;51.326;6.550;2022-12-08T01:18:13;5.20;99.90
61916;DHT22;47868;51.326;6.550;2022-12-08T01:20:39;5.20;99.90
61916;DHT22;47868;51.326;6.550;2022-12-08T01:23:04;5.20;99.90
61916;DHT22;47868;51.326;6.550;2022-12-08T01:25:32;5.20;99.90
61916;DHT22;47868;51.326;6.550;2022-12-08T01:27:58;5.20;99.90
61916;DHT22;47868;51.326;6.550;2022-12-08T01:30:23;5.30;99.90
61916;DHT22;47868;51.326;6.550;2022-12-08T01:32:49;5.30;99.90
61916;DHT22;47868;51.326;6.550;2022-12-08T01:35:14;5.20;99.90
61916;DHT22;47868;51.326;6.550;2022-12-08T01:37:40;5.20;99.90
61916;DHT22;47868;51.326;6.550;2022-12-08T01:40:06;5.30;99.90
61916;DHT22;47868;51.326;6.550;2022-12-08T01:45:02;5.20;99.90
61916;DHT22;47868;51.326;6.550;2022-12-08T01:47:33;5.20;99.90
61916;DHT22;47868;51.326;6.550;2022-12-08T01:50:00;5.20;99.90
61916;DHT22;47868;51.326;6.550;2022-12-08T01:52:33;5.20;99.90
61916;DHT22;47868;51.326;6.550;2022-12-08T01:55:09;5.20;99.90
61916;DHT22;47868;51.326;6.550;2022-12-08T01:57:42;5.20;99.90
61916;DHT22;47868;51.326;6.550;2022-12-08T02:00:13;5.20;99.90
61916;DHT22;47868;51.326;6.550;2022-12-08T02:21:05;5.30;99.90
61916;DHT22;47868;51.326;6.550;2022-12-08T02:24:06;5.30;99.90
61916;DHT22;47868;51.326;6.550;2022-12-08T02:26:52;5.30;99.90
61916;DHT22;47868;51.326;6.550;2022-12-08T02:35:06;5.30;99.90
61916;DHT22;47868;51.326;6.550;2022-12-08T02:45:21;5.20;99.90
61916;DHT22;47868;51.326;6.550;2022-12-08T02:47:48;5.40;99.90
61916;DHT22;47868;51.326;6.550;2022-12-08T02:50:16;5.30;99.90
61916;DHT22;47868;51.326;6.550;2022-12-08T03:06:11;5.20;99.90
61916;DHT22;47868;51.326;6.550;2022-12-08T03:08:41;5.20;99.90
61916;DHT22;47868;51.326;6.550;2022-12-08T03:14:01;5.20;99.90
61916;DHT22;47868;51.326;6.550;2022-12-08T03:16:29;5.30;99.90
61916;DHT22;47868;51.326;6.550;2022-12-08T03:19:02;5.30;99.90
61916;DHT22;47868;51.326;6.550;2022-12-08T03:21:32;5.30;99.90
61916;DHT22;47868;51.326;6.550;2022-12-08T03:24:01;5.20;99.90
61916;DHT22;47868;51.326;6.550;2022-12-08T03:31:31;5.30;99.90
61916;DHT22;47868;51.326;6.550;2022-12-08T03:33:59;5.20;99.90
61916;DHT22;47868;51.326;6.550;2022-12-08T03:38:53;5.10;99.90
61916;DHT22;47868;51.326;6.550;2022-12-08T03:41:20;5.30;99.90
61916;DHT22;47868;51.326;6.550;2022-12-08T03:43:50;5.20;99.90
61916;DHT22;47868;51.326;6.550;2022-12-08T03:46:17;5.30;99.90
61916;DHT22;47868;51.326;6.550;2022-12-08T03:48:43;5.40;99.90
61916;DHT22;47868;51.326;6.550;2022-12-08T03:51:09;5.30;99.90
61916;DHT22;47868;51.326;6.550;2022-12-08T03:53:34;5.30;99.90
61916;DHT22;47868;51.326;6.550;2022-12-08T03:58:26;5.20;99.90
61916;DHT22;47868;51.326;6.550;2022-12-08T04:03:18;5.30;99.90
61916;DHT22;47868;51.326;6.550;2022-12-08T04:08:10;5.20;99.90
61916;DHT22;47868;51.326;6.550;2022-12-08T04:10:35;5.40;99.90
61916;DHT22;47868;51.326;6.550;2022-12-08T04:13:01;5.20;99.90
61916;DHT22;47868;51.326;6.550;2022-12-08T04:15:27;5.30;99.90
61916;DHT22;47868;51.326;6.550;2022-12-08T04:49:41;5.20;99.90
61916;DHT22;47868;51.326;6.550;2022-12-08T04:52:07;5.30;99.90
61916;DHT22;47868;51.326;6.550;2022-12-08T04:59:27;5.20;99.90
61916;DHT22;47868;51.326;6.550;2022-12-08T05:21:30;5.20;99.90
61916;DHT22;47868;51.326;6.550;2022-12-08T05:23:56;5.30;99.90
61916;DHT22;47868;51.326;6.550;2022-12-08T05:26:22;5.30;99.90
61916;DHT22;47868;51.326;6.550;2022-12-08T05:28:47;5.30;99.90
61916;DHT22;47868;51.326;6.550;2022-12-08T06:25:09;5.00;99.90
61916;DHT22;47868;51.326;6.550;2022-12-08T06:27:34;5.10;99.90
61916;DHT22;47868;51.326;6.550;2022-12-08T06:30:00;5.00;99.90
61916;DHT22;47868;51.326;6.550;2022-12-08T06:32:26;5.00;99.90
61916;DHT22;47868;51.326;6.550;2022-12-08T06:34:51;5.00;99.90
61916;DHT22;47868;51.326;6.550;2022-12-08T06:49:51;5.00;99.90
61916;DHT22;47868;51.326;6.550;2022-12-08T06:54:42;4.90;99.90
61916;DHT22;47868;51.326;6.550;2022-12-08T06:57:08;4.90;99.90
61916;DHT22;47868;51.326;6.550;2022-12-08T06:59:34;5.00;99.90
61916;DHT22;47868;51.326;6.550;2022-12-08T07:01:59;5.10;99.90
61916;DHT22;47868;51.326;6.550;2022-12-08T07:09:18;4.90;99.90
61916;DHT22;47868;51.326;6.550;2022-12-08T07:11:44;5.00;99.90
61916;DHT22;47868;51.326;6.550;2022-12-08T07:14:09;4.90;99.90
61916;DHT22;47868;51.326;6.550;2022-12-08T07:16:35;4.90;99.90
61916;DHT22;47868;51.326;6.550;2022-12-08T07:21:27;4.90;99.90
61916;DHT22;47868;51.326;6.550;2022-12-08T07:23:53;5.00;99.90
61916;DHT22;47868;51.326;6.550;2022-12-08T07:26:18;5.00;99.90
61916;DHT22;47868;51.326;6.550;2022-12-08T07:28:44;5.10;99.90
61916;DHT22;47868;51.326;6.550;2022-12-08T07:31:21;5.00;99.90
61916;DHT22;47868;51.326;6.550;2022-12-08T07:33:47;5.10;99.90
61916;DHT22;47868;51.326;6.550;2022-12-08T07:38:43;4.90;99.90
61916;DHT22;47868;51.326;6.550;2022-12-08T07:41:17;4.90;99.90
61916;DHT22;47868;51.326;6.550;2022-12-08T07:48:38;4.80;99.90
61916;DHT22;47868;51.326;6.550;2022-12-08T07:53:31;4.80;99.90
61916;DHT22;47868;51.326;6.550;2022-12-08T07:55:57;4.80;99.90
61916;DHT22;47868;51.326;6.550;2022-12-08T08:10:38;4.80;99.90
61916;DHT22;47868;51.326;6.550;2022-12-08T08:17:57;4.90;99.90
61916;DHT22;47868;51.326;6.550;2022-12-08T08:20:23;5.00;99.90
61916;DHT22;47868;51.326;6.550;2022-12-08T08:22:50;4.80;99.90
61916;DHT22;47868;51.326;6.550;2022-12-08T08:25:17;5.10;99.90
61916;DHT22;47868;51.326;6.550;2022-12-08T08:27:43;5.00;99.90
61916;DHT22;47868;51.326;6.550;2022-12-08T08:30:10;5.00;99.90
61916;DHT22;47868;51.326;6.550;2022-12-08T08:32:36;5.10;99.90
61916;DHT22;47868;51.326;6.550;2022-12-08T08:35:03;5.10;99.90
61916;DHT22;47868;51.326;6.550;2022-12-08T08:37:28;5.10;99.90
61916;DHT22;47868;51.326;6.550;2022-12-08T08:39:54;5.10;99.90
61916;DHT22;47868;51.326;6.550;2022-12-08T08:42:21;5.10;99.90
61916;DHT22;47868;51.326;6.550;2022-12-08T08:44:47;6.10;99.90
61916;DHT22;47868;51.326;6.550;2022-12-08T08:47:13;5.00;99.90
61916;DHT22;47868;51.326;6.550;2022-12-08T08:49:38;4.90;99.90
61916;DHT22;47868;51.326;6.550;2022-12-08T08:52:04;5.00;99.90
61916;DHT22;47868;51.326;6.550;2022-12-08T08:54:30;5.10;99.90
61916;DHT22;47868;51.326;6.550;2022-12-08T08:56:57;5.10;99.90
61916;DHT22;47868;51.326;6.550;2022-12-08T08:59:23;5.10;99.90
61916;DHT22;47868;51.326;6.550;2022-12-08T09:01:48;5.10;99.90
61916;DHT22;47868;51.326;6.550;2022-12-08T09:04:14;5.10;99.90
61916;DHT22;47868;51.326;6.550;2022-12-08T09:18:54;4.90;99.90
61916;DHT22;47868;51.326;6.550;2022-12-08T09:21:23;4.90;99.90
61916;DHT22;47868;51.326;6.550;2022-12-08T09:23:50;4.90;99.90
61916;DHT22;47868;51.326;6.550;2022-12-08T09:26:16;4.90;99.90
61916;DHT22;47868;51.326;6.550;2022-12-08T09:28:41;5.00;99.90
61916;DHT22;47868;51.326;6.550;2022-12-08T09:31:12;5.00;99.90
61916;DHT22;47868;51.326;6.550;2022-12-08T09:33:38;5.00;99.90
61916;DHT22;47868;51.326;6.550;2022-12-08T09:36:04;5.40;99.90
61916;DHT22;47868;51.326;6.550;2022-12-08T09:38:32;4.90;99.90
61916;DHT22;47868;51.326;6.550;2022-12-08T10:03:37;4.80;99.90
61916;DHT22;47868;51.326;6.550;2022-12-08T10:06:32;4.90;99.90
61916;DHT22;47868;51.326;6.550;2022-12-08T10:19:24;5.10;99.90
61916;DHT22;47868;51.326;6.550;2022-12-08T10:27:02;5.30;99.90
61916;DHT22;47868;51.326;6.550;2022-12-08T10:29:28;5.70;99.90
61916;DHT22;47868;51.326;6.550;2022-12-08T10:52:20;5.50;99.90
61916;DHT22;47868;51.326;6.550;2022-12-08T11:07:25;5.40;99.90
61916;DHT22;47868;51.326;6.550;2022-12-08T11:14:58;5.40;99.90
61916;DHT22;47868;51.326;6.550;2022-12-08T11:17:28;5.40;99.90
61916;DHT22;47868;51.326;6.550;2022-12-08T11:20:21;5.40;99.90
61916;DHT22;47868;51.326;6.550;2022-12-08T11:22:54;5.40;99.90
61916;DHT22;47868;51.326;6.550;2022-12-08T11:25:25;5.40;99.90
61916;DHT22;47868;51.326;6.550;2022-12-08T11:28:01;5.40;99.90
61916;DHT22;47868;51.326;6.550;2022-12-08T11:30:38;5.50;99.90
61916;DHT22;47868;51.326;6.550;2022-12-08T11:36:03;5.50;99.90
61916;DHT22;47868;51.326;6.550;2022-12-08T11:46:09;5.20;99.90
61916;DHT22;47868;51.326;6.550;2022-12-08T12:20:51;5.70;99.90
61916;DHT22;47868;51.326;6.550;2022-12-08T12:24:07;5.50;99.90
61916;DHT22;47868;51.326;6.550;2022-12-08T12:28:47;5.30;99.90
61916;DHT22;47868;51.326;6.550;2022-12-08T12:36:16;5.30;99.90
61916;DHT22;47868;51.326;6.550;2022-12-08T12:57:22;5.60;99.90
61916;DHT22;47868;51.326;6.550;2022-12-08T13:08:01;5.60;99.90
61916;DHT22;47868;51.326;6.550;2022-12-08T13:15:39;5.60;99.90
61916;DHT22;47868;51.326;6.550;2022-12-08T13:18:06;5.60;99.90
61916;DHT22;47868;51.326;6.550;2022-12-08T13:33:32;5.40;99.90
61916;DHT22;47868;51.326;6.550;2022-12-08T13:36:23;5.60;99.90
61916;DHT22;47868;51.326;6.550;2022-12-08T13:46:51;5.50;99.90
61916;DHT22;47868;51.326;6.550;2022-12-08T13:56:54;5.60;99.90
61916;DHT22;47868;51.326;6.550;2022-12-08T13:59:32;5.70;99.90
61916;DHT22;47868;51.326;6.550;2022-12-08T14:02:03;5.80;99.90
61916;DHT22;47868;51.326;6.550;2022-12-08T14:07:00;5.60;99.90
61916;DHT22;47868;51.326;6.550;2022-12-08T14:09:31;5.80;99.90
61916;DHT22;47868;51.326;6.550;2022-12-08T14:12:25;5.80;99.90
61916;DHT22;47868;51.326;6.550;2022-12-08T14:14:57;5.80;99.90
61916;DHT22;47868;51.326;6.550;2022-12-08T14:17:23;6.10;99.90
61916;DHT22;47868;51.326;6.550;2022-12-08T14:20:30;5.70;99.90
61916;DHT22;47868;51.326;6.550;2022-12-08T14:22:57;5.70;99.90
61916;DHT22;47868;51.326;6.550;2022-12-08T14:25:28;5.70;99.90
61916;DHT22;47868;51.326;6.550;2022-12-08T14:28:00;5.60;99.90
61916;DHT22;47868;51.326;6.550;2022-12-08T14:30:30;5.70;99.90
61916;DHT22;47868;51.326;6.550;2022-12-08T14:32:57;5.70;99.90
61916;DHT22;47868;51.326;6.550;2022-12-08T14:38:00;5.70;99.90
61916;DHT22;47868;51.326;6.550;2022-12-08T14:48:39;5.50;99.90
61916;DHT22;47868;51.326;6.550;2022-12-08T14:58:48;5.50;99.90
61916;DHT22;47868;51.326;6.550;2022-12-08T15:01:20;5.60;99.90
61916;DHT22;47868;51.326;6.550;2022-12-08T15:03:47;5.60;99.90
61916;DHT22;47868;51.326;6.550;2022-12-08T15:06:13;5.60;99.90
61916;DHT22;47868;51.326;6.550;2022-12-08T15:08:57;5.60;99.90
61916;DHT22;47868;51.326;6.550;2022-12-08T15:13:52;5.50;99.90
61916;DHT22;47868;51.326;6.550;2022-12-08T15:16:41;5.40;99.90
61916;DHT22;47868;51.326;6.550;2022-12-08T15:21:49;5.50;99.90
61916;DHT22;47868;51.326;6.550;2022-12-08T15:24:15;5.50;99.90
61916;DHT22;47868;51.326;6.550;2022-12-08T15:26:44;5.50;99.90
61916;DHT22;47868;51.326;6.550;2022-12-08T15:29:22;5.40;99.90
61916;DHT22;47868;51.326;6.550;2022-12-08T15:31:50;5.40;99.90
61916;DHT22;47868;51.326;6.550;2022-12-08T15:34:17;5.30;99.90
61916;DHT22;47868;51.326;6.550;2022-12-08T15:36:43;5.30;99.90
61916;DHT22;47868;51.326;6.550;2022-12-08T15:39:34;5.30;99.90
61916;DHT22;47868;51.326;6.550;2022-12-08T15:42:01;5.30;99.90
61916;DHT22;47868;51.326;6.550;2022-12-08T15:44:28;5.40;99.90
61916;DHT22;47868;51.326;6.550;2022-12-08T15:46:54;5.30;99.90
61916;DHT22;47868;51.326;6.550;2022-12-08T15:49:21;5.20;99.90
61916;DHT22;47868;51.326;6.550;2022-12-08T15:51:48;5.20;99.90
61916;DHT22;47868;51.326;6.550;2022-12-08T15:54:14;5.10;99.90
61916;DHT22;47868;51.326;6.550;2022-12-08T15:56:52;4.80;99.90
61916;DHT22;47868;51.326;6.550;2022-12-08T15:59:23;5.10;99.90
61916;DHT22;47868;51.326;6.550;2022-12-08T16:01:49;5.00;99.90
61916;DHT22;47868;51.326;6.550;2022-12-08T16:04:19;5.00;99.90
61916;DHT22;47868;51.326;6.550;2022-12-08T16:06:48;5.10;99.90
61916;DHT22;47868;51.326;6.550;2022-12-08T16:09:18;5.10;99.90
61916;DHT22;47868;51.326;6.550;2022-12-08T16:11:45;5.10;99.90
61916;DHT22;47868;51.326;6.550;2022-12-08T16:14:30;5.10;99.90
61916;DHT22;47868;51.326;6.550;2022-12-08T16:16:56;5.10;99.90
61916;DHT22;47868;51.326;6.550;2022-12-08T16:19:22;5.20;99.90
61916;DHT22;47868;51.326;6.550;2022-12-08T16:21:47;5.10;99.90
61916;DHT22;47868;51.326;6.550;2022-12-08T16:24:13;5.20;99.90
61916;DHT22;47868;51.326;6.550;2022-12-08T16:26:38;5.20;99.90
61916;DHT22;47868;51.326;6.550;2022-12-08T16:29:04;5.20;99.90
61916;DHT22;47868;51.326;6.550;2022-12-08T16:33:56;5.20;99.90
61916;DHT22;47868;51.326;6.550;2022-12-08T16:36:22;5.20;99.90
61916;DHT22;47868;51.326;6.550;2022-12-08T16:38:47;5.20;99.90
61916;DHT22;47868;51.326;6.550;2022-12-08T16:41:14;5.20;99.90
61916;DHT22;47868;51.326;6.550;2022-12-08T16:44:03;5.20;99.90
61916;DHT22;47868;51.326;6.550;2022-12-08T16:46:29;4.30;99.90
61916;DHT22;47868;51.326;6.550;2022-12-08T16:48:55;5.10;99.90
61916;DHT22;47868;51.326;6.550;2022-12-08T16:51:23;5.20;99.90
61916;DHT22;47868;51.326;6.550;2022-12-08T16:53:49;5.20;99.90
61916;DHT22;47868;51.326;6.550;2022-12-08T16:56:18;5.20;99.90
61916;DHT22;47868;51.326;6.550;2022-12-08T16:58:45;5.20;99.90
61916;DHT22;47868;51.326;6.550;2022-12-08T17:01:12;5.30;99.90
61916;DHT22;47868;51.326;6.550;2022-12-08T17:03:39;5.30;99.90
61916;DHT22;47868;51.326;6.550;2022-12-08T17:06:13;5.30;99.90
61916;DHT22;47868;51.326;6.550;2022-12-08T17:08:40;5.30;99.90
61916;DHT22;47868;51.326;6.550;2022-12-08T17:11:06;5.20;99.90
61916;DHT22;47868;51.326;6.550;2022-12-08T17:13:33;5.30;99.90
61916;DHT22;47868;51.326;6.550;2022-12-08T17:15:59;5.30;99.90
61916;DHT22;47868;51.326;6.550;2022-12-08T17:18:24;5.30;99.90
61916;DHT22;47868;51.326;6.550;2022-12-08T17:20:50;5.20;99.90
61916;DHT22;47868;51.326;6.550;2022-12-08T17:23:15;5.30;99.90
61916;DHT22;47868;51.326;6.550;2022-12-08T17:25:41;5.40;99.90
61916;DHT22;47868;51.326;6.550;2022-12-08T17:28:07;5.40;99.90
61916;DHT22;47868;51.326;6.550;2022-12-08T17:30:32;5.70;99.90
61916;DHT22;47868;51.326;6.550;2022-12-08T17:32:58;5.40;99.90
61916;DHT22;47868;51.326;6.550;2022-12-08T17:35:23;5.40;99.90
61916;DHT22;47868;51.326;6.550;2022-12-08T17:37:49;5.40;99.90
61916;DHT22;47868;51.326;6.550;2022-12-08T17:40:15;5.40;99.90
61916;DHT22;47868;51.326;6.550;2022-12-08T17:42:40;5.40;99.90
61916;DHT22;47868;51.326;6.550;2022-12-08T17:45:07;5.30;99.90
61916;DHT22;47868;51.326;6.550;2022-12-08T17:47:32;5.40;99.90
61916;DHT22;47868;51.326;6.550;2022-12-08T17:49:58;5.50;99.90
61916;DHT22;47868;51.326;6.550;2022-12-08T17:52:25;5.50;99.90
61916;DHT22;47868;51.326;6.550;2022-12-08T17:54:51;5.50;99.90
61916;DHT22;47868;51.326;6.550;2022-12-08T17:57:17;5.50;99.90
61916;DHT22;47868;51.326;6.550;2022-12-08T17:59:42;5.50;99.90
61916;DHT22;47868;51.326;6.550;2022-12-08T18:02:09;5.50;99.90
61916;DHT22;47868;51.326;6.550;2022-12-08T18:04:36;5.50;99.90
61916;DHT22;47868;51.326;6.550;2022-12-08T18:07:01;5.40;99.90
61916;DHT22;47868;51.326;6.550;2022-12-08T18:09:29;5.30;99.90
61916;DHT22;47868;51.326;6.550;2022-12-08T18:11:55;5.50;99.90
61916;DHT22;47868;51.326;6.550;2022-12-08T18:14:21;5.40;99.90
61916;DHT22;47868;51.326;6.550;2022-12-08T18:16:47;5.40;99.90
61916;DHT22;47868;51.326;6.550;2022-12-08T18:19:13;5.40;99.90
61916;DHT22;47868;51.326;6.550;2022-12-08T18:21:40;5.30;99.90
61916;DHT22;47868;51.326;6.550;2022-12-08T18:24:07;5.40;99.90
61916;DHT22;47868;51.326;6.550;2022-12-08T18:26:33;5.40;99.90
61916;DHT22;47868;51.326;6.550;2022-12-08T18:28:59;5.40;99.90
61916;DHT22;47868;51.326;6.550;2022-12-08T18:31:24;5.40;99.90
61916;DHT22;47868;51.326;6.550;2022-12-08T18:33:50;5.40;99.90
61916;DHT22;47868;51.326;6.550;2022-12-08T18:36:20;5.20;99.90
61916;DHT22;47868;51.326;6.550;2022-12-08T18:38:46;5.20;99.90
61916;DHT22;47868;51.326;6.550;2022-12-08T18:41:16;5.00;99.90
61916;DHT22;47868;51.326;6.550;2022-12-08T18:43:42;5.20;99.90
61916;DHT22;47868;51.326;6.550;2022-12-08T18:46:09;4.90;99.90
61916;DHT22;47868;51.326;6.550;2022-12-08T18:48:37;4.80;99.90
61916;DHT22;47868;51.326;6.550;2022-12-08T18:51:07;4.90;99.90
61916;DHT22;47868;51.326;6.550;2022-12-08T18:53:33;5.60;99.90
61916;DHT22;47868;51.326;6.550;2022-12-08T18:55:59;4.70;99.90
61916;DHT22;47868;51.326;6.550;2022-12-08T18:58:24;4.70;99.90
61916;DHT22;47868;51.326;6.550;2022-12-08T19:00:50;4.70;99.90
61916;DHT22;47868;51.326;6.550;2022-12-08T19:03:16;4.60;99.90
61916;DHT22;47868;51.326;6.550;2022-12-08T19:05:41;4.60;99.90
61916;DHT22;47868;51.326;6.550;2022-12-08T19:10:36;4.50;99.90
61916;DHT22;47868;51.326;6.550;2022-12-08T19:13:04;4.40;99.90
61916;DHT22;47868;51.326;6.550;2022-12-08T19:15:30;4.40;99.90
61916;DHT22;47868;51.326;6.550;2022-12-08T19:17:56;4.40;99.90
61916;DHT22;47868;51.326;6.550;2022-12-08T19:20:21;4.40;99.90
61916;DHT22;47868;51.326;6.550;2022-12-08T19:22:47;4.40;99.90
61916;DHT22;47868;51.326;6.550;2022-12-08T19:25:13;4.40;99.90
61916;DHT22;47868;51.326;6.550;2022-12-08T19:27:38;4.40;99.90
61916;DHT22;47868;51.326;6.550;2022-12-08T19:30:04;4.20;99.90
61916;DHT22;47868;51.326;6.550;2022-12-08T19:32:30;4.40;99.90
61916;DHT22;47868;51.326;6.550;2022-12-08T19:34:56;4.20;99.90
61916;DHT22;47868;51.326;6.550;2022-12-08T19:37:21;4.20;99.90
61916;DHT22;47868;51.326;6.550;2022-12-08T19:39:47;4.20;99.90
61916;DHT22;47868;51.326;6.550;2022-12-08T19:42:31;3.60;99.90
61916;DHT22;47868;51.326;6.550;2022-12-08T19:45:18;4.30;99.90
61916;DHT22;47868;51.326;6.550;2022-12-08T19:47:46;4.30;99.90
61916;DHT22;47868;51.326;6.550;2022-12-08T19:50:13;4.20;99.90
61916;DHT22;47868;51.326;6.550;2022-12-08T19:52:57;4.20;99.90
61916;DHT22;47868;51.326;6.550;2022-12-08T19:55:24;4.30;99.90
61916;DHT22;47868;51.326;6.550;2022-12-08T19:57:50;4.30;99.90
61916;DHT22;47868;51.326;6.550;2022-12-08T20:00:17;4.30;99.90
61916;DHT22;47868;51.326;6.550;2022-12-08T20:02:43;4.40;99.90
61916;DHT22;47868;51.326;6.550;2022-12-08T20:05:10;4.40;99.90
61916;DHT22;47868;51.326;6.550;2022-12-08T20:07:36;4.40;99.90
61916;DHT22;47868;51.326;6.550;2022-12-08T20:10:15;4.40;99.90
61916;DHT22;47868;51.326;6.550;2022-12-08T20:12:40;4.40;99.90
61916;DHT22;47868;51.326;6.550;2022-12-08T20:15:08;4.40;99.90
61916;DHT22;47868;51.326;6.550;2022-12-08T20:17:35;3.70;99.90
61916;DHT22;47868;51.326;6.550;2022-12-08T20:20:01;4.40;99.90
61916;DHT22;47868;51.326;6.550;2022-12-08T20:22:26;4.40;99.90
61916;DHT22;47868;51.326;6.550;2022-12-08T20:24:52;4.40;99.90
61916;DHT22;47868;51.326;6.550;2022-12-08T20:27:18;4.40;99.90
61916;DHT22;47868;51.326;6.550;2022-12-08T20:29:43;4.40;99.90
61916;DHT22;47868;51.326;6.550;2022-12-08T20:32:09;4.40;99.90
61916;DHT22;47868;51.326;6.550;2022-12-08T20:34:34;4.50;99.90
61916;DHT22;47868;51.326;6.550;2022-12-08T20:37:00;4.50;99.90
61916;DHT22;47868;51.326;6.550;2022-12-08T20:39:26;4.50;99.90
61916;DHT22;47868;51.326;6.550;2022-12-08T20:44:19;4.50;99.90
61916;DHT22;47868;51.326;6.550;2022-12-08T20:46:44;4.50;99.90
61916;DHT22;47868;51.326;6.550;2022-12-08T20:49:10;4.50;99.90
61916;DHT22;47868;51.326;6.550;2022-12-08T20:51:36;4.50;99.90
61916;DHT22;47868;51.326;6.550;2022-12-08T20:54:01;4.50;99.90
61916;DHT22;47868;51.326;6.550;2022-12-08T20:56:29;4.50;99.90
61916;DHT22;47868;51.326;6.550;2022-12-08T20:58:56;4.90;99.90
61916;DHT22;47868;51.326;6.550;2022-12-08T21:01:23;5.40;99.90
61916;DHT22;47868;51.326;6.550;2022-12-08T21:03:49;4.20;99.90
61916;DHT22;47868;51.326;6.550;2022-12-08T21:06:19;4.50;99.90
61916;DHT22;47868;51.326;6.550;2022-12-08T21:08:44;4.50;99.90
61916;DHT22;47868;51.326;6.550;2022-12-08T21:11:10;4.20;99.90
61916;DHT22;47868;51.326;6.550;2022-12-08T21:13:37;4.70;99.90
61916;DHT22;47868;51.326;6.550;2022-12-08T21:16:03;4.70;99.90
61916;DHT22;47868;51.326;6.550;2022-12-08T21:18:29;4.70;99.90
61916;DHT22;47868;51.326;6.550;2022-12-08T21:21:05;4.70;99.90
61916;DHT22;47868;51.326;6.550;2022-12-08T21:23:31;4.70;99.90
61916;DHT22;47868;51.326;6.550;2022-12-08T21:25:57;4.60;99.90
61916;DHT22;47868;51.326;6.550;2022-12-08T21:28:23;4.60;99.90
61916;DHT22;47868;51.326;6.550;2022-12-08T21:30:49;4.70;99.90
61916;DHT22;47868;51.326;6.550;2022-12-08T21:33:15;4.70;99.90
61916;DHT22;47868;51.326;6.550;2022-12-08T21:35:42;4.80;99.90
61916;DHT22;47868;51.326;6.550;2022-12-08T21:40:34;5.10;99.90
61916;DHT22;47868;51.326;6.550;2022-12-08T21:43:00;4.80;99.90
61916;DHT22;47868;51.326;6.550;2022-12-08T21:45:26;4.80;99.90
61916;DHT22;47868;51.326;6.550;2022-12-08T21:47:52;4.80;99.90
61916;DHT22;47868;51.326;6.550;2022-12-08T21:50:19;4.80;99.90
61916;DHT22;47868;51.326;6.550;2022-12-08T21:52:46;4.80;99.90
61916;DHT22;47868;51.326;6.550;2022-12-08T21:57:39;4.80;99.90
61916;DHT22;47868;51.326;6.550;2022-12-08T22:00:06;4.90;99.90
61916;DHT22;47868;51.326;6.550;2022-12-08T22:02:32;4.80;99.90
61916;DHT22;47868;51.326;6.550;2022-12-08T22:04:58;4.80;99.90
61916;DHT22;47868;51.326;6.550;2022-12-08T22:07:29;4.70;99.90
61916;DHT22;47868;51.326;6.550;2022-12-08T22:09:58;4.90;99.90
61916;DHT22;47868;51.326;6.550;2022-12-08T22:12:24;4.90;99.90
61916;DHT22;47868;51.326;6.550;2022-12-08T22:14:50;4.80;99.90
61916;DHT22;47868;51.326;6.550;2022-12-08T22:17:24;4.80;99.90
61916;DHT22;47868;51.326;6.550;2022-12-08T22:19:51;4.80;99.90
61916;DHT22;47868;51.326;6.550;2022-12-08T22:22:25;4.80;99.90
61916;DHT22;47868;51.326;6.550;2022-12-08T22:24:50;4.30;99.90
61916;DHT22;47868;51.326;6.550;2022-12-08T22:27:19;4.90;99.90
61916;DHT22;47868;51.326;6.550;2022-12-08T22:29:47;4.80;99.90
61916;DHT22;47868;51.326;6.550;2022-12-08T22:32:12;4.80;99.90
61916;DHT22;47868;51.326;6.550;2022-12-08T22:34:42;4.90;99.90
61916;DHT22;47868;51.326;6.550;2022-12-08T22:37:08;4.80;99.90
61916;DHT22;47868;51.326;6.550;2022-12-08T22:39:34;4.80;99.90
61916;DHT22;47868;51.326;6.550;2022-12-08T22:42:06;4.80;99.90
61916;DHT22;47868;51.326;6.550;2022-12-08T22:44:31;5.30;99.90
61916;DHT22;47868;51.326;6.550;2022-12-08T22:47:04;4.80;99.90
61916;DHT22;47868;51.326;6.550;2022-12-08T22:49:32;4.70;99.90
61916;DHT22;47868;51.326;6.550;2022-12-08T22:51:59;4.70;99.90
61916;DHT22;47868;51.326;6.550;2022-12-08T22:56:54;4.90;99.90
61916;DHT22;47868;51.326;6.550;2022-12-08T22:59:25;4.60;99.90
61916;DHT22;47868;51.326;6.550;2022-12-08T23:01:52;4.70;99.90
61916;DHT22;47868;51.326;6.550;2022-12-08T23:04:22;4.70;99.90
61916;DHT22;47868;51.326;6.550;2022-12-08T23:06:48;4.70;99.90
61916;DHT22;47868;51.326;6.550;2022-12-08T23:09:14;4.70;99.90
61916;DHT22;47868;51.326;6.550;2022-12-08T23:11:44;5.00;99.90
61916;DHT22;47868;51.326;6.550;2022-12-08T23:14:12;4.90;99.90
61916;DHT22;47868;51.326;6.550;2022-12-08T23:16:38;4.50;99.90
61916;DHT22;47868;51.326;6.550;2022-12-08T23:19:07;4.60;99.90
61916;DHT22;47868;51.326;6.550;2022-12-08T23:21:33;4.70;99.90
61916;DHT22;47868;51.326;6.550;2022-12-08T23:24:00;4.80;99.90
61916;DHT22;47868;51.326;6.550;2022-12-08T23:26:30;4.70;99.90
61916;DHT22;47868;51.326;6.550;2022-12-08T23:28:57;4.70;99.90
61916;DHT22;47868;51.326;6.550;2022-12-08T23:31:28;4.70;99.90
61916;DHT22;47868;51.326;6.550;2022-12-08T23:33:54;4.50;99.90
61916;DHT22;47868;51.326;6.550;2022-12-08T23:36:21;4.50;99.90
61916;DHT22;47868;51.326;6.550;2022-12-08T23:38:52;4.50;99.90
61916;DHT22;47868;51.326;6.550;2022-12-08T23:41:24;4.60;99.90
61916;DHT22;47868;51.326;6.550;2022-12-08T23:43:52;4.60;99.90
61916;DHT22;47868;51.326;6.550;2022-12-08T23:46:19;4.50;99.90
61916;DHT22;47868;51.326;6.550;2022-12-08T23:48:47;4.80;99.90
61916;DHT22;47868;51.326;6.550;2022-12-08T23:51:17;4.50;99.90
61916;DHT22;47868;51.326;6.550;2022-12-08T23:53:44;4.50;99.90
61916;DHT22;47868;51.326;6.550;2022-12-08T23:56:14;4.50;99.90
61916;DHT22;47868;51.326;6.550;2022-12-08T23:58:42;4.50;99.90
